Time;durP1;ratioP1;P1;durP2;ratioP2;P2;SDS_P1;SDS_P2;PMS_P1;PMS_P2;Temp;Humidity;BMP_temperature;BMP_pressure;BME280_temperature;BME280_humidity;BME280_pressure;Samples;Min_cycle;Max_cycle;Signal;HPM_P1;HPM_P2
2021/05/26 00:00:58;;;;;;;1.40;1.30;;;;;;;8.11;59.74;95709.72;5049878;28;20208;-76
2021/05/26 00:03:23;;;;;;;3.10;0.80;;;;;;;8.26;59.20;95707.63;5050126;28;20198;-74
2021/05/26 00:05:49;;;;;;;3.53;1.07;;;;;;;8.21;59.49;95700.25;5050529;28;20204;-75
2021/05/26 00:08:27;;;;;;;3.50;0.97;;;;;;;8.23;59.68;95700.94;5048106;28;20216;-74
2021/05/26 00:10:53;;;;;;;2.83;1.10;;;;;;;8.16;60.05;95701.59;5033295;28;20209;-74
2021/05/26 00:13:19;;;;;;;1.40;0.80;;;;;;;8.13;59.86;95692.34;5050175;28;20217;-76
2021/05/26 00:15:44;;;;;;;5.57;1.00;;;;;;;8.16;60.17;95689.47;5050302;28;20696;-74
2021/05/26 00:18:09;;;;;;;1.47;0.90;;;;;;;8.15;60.42;95687.84;5050010;28;20189;-73
2021/05/26 00:20:35;;;;;;;3.23;0.90;;;;;;;8.15;59.85;95687.84;5033419;28;20205;-74
2021/05/26 00:23:00;;;;;;;3.03;0.80;;;;;;;8.11;60.98;95686.44;5033517;28;20214;-74
2021/05/26 00:25:25;;;;;;;3.40;1.10;;;;;;;8.08;61.16;95685.91;5048255;28;20193;-74
2021/05/26 00:27:57;;;;;;;1.80;0.90;;;;;;;8.12;60.93;95680.31;5049797;28;20650;-74
2021/05/26 00:30:23;;;;;;;2.27;1.00;;;;;;;8.14;61.08;95678.44;5049776;28;20263;-75
2021/05/26 00:32:48;;;;;;;2.20;0.93;;;;;;;8.07;61.83;95677.31;5051191;28;20617;-73
2021/05/26 00:35:14;;;;;;;2.37;0.80;;;;;;;8.09;61.66;95670.25;5050199;28;20208;-75
2021/05/26 00:37:39;;;;;;;3.03;0.73;;;;;;;8.16;62.23;95673.13;5033179;28;20213;-76
2021/05/26 00:40:05;;;;;;;2.27;1.13;;;;;;;8.09;62.92;95666.84;5033168;28;20696;-75
2021/05/26 00:42:30;;;;;;;2.77;1.00;;;;;;;8.10;63.70;95658.94;5049543;28;20296;-76
2021/05/26 00:44:56;;;;;;;2.17;0.80;;;;;;;8.14;63.54;95652.56;5049692;28;20239;-76
2021/05/26 00:47:48;;;;;;;3.47;1.07;;;;;;;8.13;64.26;95653.53;5048623;28;20503;-76
2021/05/26 00:50:22;;;;;;;2.43;1.23;;;;;;;8.11;64.38;95649.41;5035998;28;20271;-76
2021/05/26 00:52:48;;;;;;;2.33;0.87;;;;;;;8.12;64.46;95645.88;5054824;28;20209;-76
2021/05/26 00:55:16;;;;;;;1.60;0.90;;;;;;;8.12;63.94;95646.69;5053557;28;20185;-76
2021/05/26 00:57:41;;;;;;;3.23;1.00;;;;;;;8.13;64.22;95650.13;5053362;28;20205;-76
2021/05/26 01:00:10;;;;;;;1.63;0.77;;;;;;;8.17;64.25;95644.56;5053526;28;20178;-76
2021/05/26 01:02:36;;;;;;;3.73;1.20;;;;;;;8.14;64.34;95644.00;5053195;28;20209;-75
2021/05/26 01:05:02;;;;;;;3.70;0.90;;;;;;;8.13;65.16;95642.38;5053483;28;20184;-75
2021/05/26 01:07:27;;;;;;;2.77;0.80;;;;;;;8.11;64.77;95641.66;5052326;28;20188;-75
2021/05/26 01:09:52;;;;;;;3.33;0.97;;;;;;;8.13;64.56;95627.66;5086825;28;20209;-76
2021/05/26 01:12:18;;;;;;;2.40;1.00;;;;;;;8.06;64.91;95636.88;5032841;28;20186;-75
2021/05/26 01:14:43;;;;;;;2.87;0.90;;;;;;;8.05;65.16;95635.25;5033348;28;20275;-76
2021/05/26 01:17:08;;;;;;;1.70;0.97;;;;;;;8.04;65.15;95632.78;5034727;28;20178;-76
2021/05/26 01:19:34;;;;;;;3.53;1.00;;;;;;;8.04;65.05;95637.94;5049928;28;20186;-75
2021/05/26 01:21:59;;;;;;;1.77;0.80;;;;;;;8.04;64.87;95630.19;5053126;28;20201;-76
2021/05/26 01:24:24;;;;;;;5.47;1.00;;;;;;;8.08;64.67;95640.16;5053247;28;20697;-75
2021/05/26 01:26:50;;;;;;;2.80;0.73;;;;;;;8.08;64.79;95632.41;5053109;28;20182;-75
2021/05/26 01:29:16;;;;;;;2.97;0.73;;;;;;;8.07;64.92;95623.00;5034249;28;20585;-75
2021/05/26 01:31:42;;;;;;;3.87;1.10;;;;;;;8.09;64.95;95618.50;5052614;28;20746;-75
2021/05/26 01:34:08;;;;;;;2.00;0.90;;;;;;;8.07;64.89;95615.25;5052968;28;20201;-76
2021/05/26 01:36:35;;;;;;;2.97;1.10;;;;;;;8.10;65.75;95617.56;5052798;28;20178;-76
2021/05/26 01:39:02;;;;;;;3.47;1.20;;;;;;;8.07;65.57;95614.44;5052050;28;20571;-75
2021/05/26 01:41:28;;;;;;;3.93;1.13;;;;;;;8.04;65.66;95606.91;5050910;28;20293;-76
2021/05/26 01:43:54;;;;;;;2.17;0.87;;;;;;;7.93;66.57;95611.22;5053885;28;20716;-76
2021/05/26 01:46:21;;;;;;;2.63;1.00;;;;;;;7.93;66.43;95611.22;5052753;28;20182;-75
2021/05/26 01:48:47;;;;;;;2.43;1.10;;;;;;;7.85;67.01;95602.47;5052694;28;20252;-75
2021/05/26 01:51:12;;;;;;;1.77;0.87;;;;;;;7.88;67.14;95594.50;5050955;28;20705;-75
2021/05/26 01:53:38;;;;;;;3.80;1.00;;;;;;;7.91;66.47;95595.03;5052549;28;20205;-76
2021/05/26 01:56:04;;;;;;;3.30;1.00;;;;;;;7.86;66.87;95588.59;5053688;28;20564;-76
2021/05/26 01:58:29;;;;;;;3.43;1.30;;;;;;;7.87;67.22;95595.44;5052183;28;20189;-76
2021/05/26 02:00:54;;;;;;;3.07;1.20;;;;;;;7.81;66.98;95591.59;5050138;28;20204;-76
2021/05/26 02:03:19;;;;;;;4.00;1.20;;;;;;;7.88;66.73;95587.53;5053315;28;20212;-75
2021/05/26 02:05:45;;;;;;;2.80;0.90;;;;;;;7.81;67.76;95580.44;5035778;28;20177;-75
2021/05/26 02:08:10;;;;;;;2.97;1.00;;;;;;;7.86;67.83;95581.69;5053591;28;20193;-76
2021/05/26 02:13:20;;;;;;;2.17;0.80;;;;;;;7.79;68.89;95569.41;5051546;28;20251;-75
2021/05/26 02:15:45;;;;;;;2.30;0.90;;;;;;;7.77;68.77;95568.69;5052069;28;20562;-76
2021/05/26 02:18:10;;;;;;;4.57;1.07;;;;;;;7.71;68.81;95569.25;5052111;28;20719;-75
2021/05/26 02:20:35;;;;;;;4.03;0.87;;;;;;;7.77;69.14;95563.53;5051904;28;20170;-75
2021/05/26 02:23:01;;;;;;;3.33;1.10;;;;;;;7.68;69.14;95567.72;5049774;28;20252;-75
2021/05/26 02:25:26;;;;;;;1.27;0.73;;;;;;;7.69;68.90;95566.78;5052020;28;20186;-76
2021/05/26 02:27:51;;;;;;;1.93;1.00;;;;;;;7.60;69.42;95565.78;5052042;28;20189;-75
2021/05/26 02:30:17;;;;;;;4.80;1.30;;;;;;;7.57;69.50;95560.88;5052750;28;20628;-76
2021/05/26 02:32:42;;;;;;;2.73;1.20;;;;;;;7.55;70.14;95572.28;5050732;28;20251;-75
2021/05/26 02:35:08;;;;;;;4.13;0.90;;;;;;;7.61;70.30;95574.38;5052963;28;20182;-75
2021/05/26 02:37:33;;;;;;;3.00;1.00;;;;;;;7.59;70.32;95578.81;5035046;28;20178;-76
2021/05/26 02:39:59;;;;;;;2.43;0.90;;;;;;;7.59;70.48;95571.88;5051675;28;20228;-76
2021/05/26 02:42:24;;;;;;;3.20;1.13;;;;;;;7.59;71.03;95569.31;5034749;28;20213;-75
2021/05/26 02:44:49;;;;;;;1.43;1.00;;;;;;;7.46;72.25;95566.13;5050318;28;20194;-75
2021/05/26 02:47:15;;;;;;;3.87;1.10;;;;;;;7.44;72.60;95562.84;5051366;28;20637;-75
2021/05/26 02:49:40;;;;;;;2.73;0.90;;;;;;;7.40;73.37;95566.63;5051373;28;20189;-75
2021/05/26 02:52:05;;;;;;;4.50;1.33;;;;;;;7.34;73.80;95567.16;5052234;28;20196;-75
2021/05/26 02:54:31;;;;;;;4.47;1.27;;;;;;;7.34;74.03;95567.16;5051488;28;20212;-75
2021/05/26 02:56:56;;;;;;;5.27;1.30;;;;;;;7.32;74.21;95564.66;5046957;28;20197;-75
2021/05/26 02:59:21;;;;;;;4.20;1.20;;;;;;;7.28;73.90;95573.63;5051128;28;20236;-75
2021/05/26 03:01:47;;;;;;;4.00;1.07;;;;;;;7.29;73.45;95570.09;5052267;28;20647;-75
2021/05/26 03:04:12;;;;;;;4.30;1.03;;;;;;;7.12;74.60;95573.25;5051097;28;20209;-75
2021/05/26 03:06:37;;;;;;;3.27;1.00;;;;;;;7.07;75.17;95576.22;5051342;28;20193;-75
2021/05/26 03:09:03;;;;;;;7.13;1.63;;;;;;;7.05;76.68;95564.38;5052218;28;20178;-75
2021/05/26 03:11:29;;;;;;;4.10;1.50;;;;;;;7.18;76.38;95556.44;5050123;28;20244;-75
2021/05/26 03:13:54;;;;;;;3.60;0.90;;;;;;;7.09;77.54;95548.50;5050903;28;20221;-75
2021/05/26 03:16:19;;;;;;;3.47;0.93;;;;;;;7.07;77.73;95549.59;5050175;28;20646;-75
2021/05/26 03:18:46;;;;;;;3.10;1.23;;;;;;;7.07;78.25;95544.41;5052028;28;20185;-75
2021/05/26 03:21:12;;;;;;;4.53;1.50;;;;;;;7.10;78.19;95547.56;5051777;28;20181;-75
2021/05/26 03:23:40;;;;;;;4.03;1.20;;;;;;;7.06;78.03;95528.09;5049764;28;20190;-74
2021/05/26 03:26:06;;;;;;;2.83;1.40;;;;;;;7.06;78.17;95527.25;5051691;28;20659;-75
2021/05/26 03:28:31;;;;;;;1.50;0.87;;;;;;;7.04;78.55;95527.41;5034241;28;20200;-75
2021/05/26 03:30:57;;;;;;;4.00;1.17;;;;;;;7.05;79.23;95521.28;5050364;28;20209;-75
2021/05/26 03:33:22;;;;;;;5.23;1.30;;;;;;;7.01;79.13;95517.34;5050641;28;20692;-75
2021/05/26 03:35:48;;;;;;;5.47;1.87;;;;;;;7.03;79.46;95518.03;5049729;28;20276;-74
2021/05/26 03:38:13;;;;;;;3.40;1.40;;;;;;;6.95;79.54;95519.59;5051611;28;20738;-75
2021/05/26 03:40:39;;;;;;;2.23;1.17;;;;;;;6.91;79.66;95513.88;5051426;28;20645;-75
2021/05/26 03:43:05;;;;;;;4.50;1.33;;;;;;;6.95;79.37;95523.00;5050579;28;20276;-75
2021/05/26 03:45:31;;;;;;;4.80;1.03;;;;;;;7.01;79.28;95522.50;5032674;28;20646;-74
2021/05/26 03:47:57;;;;;;;4.43;1.27;;;;;;;6.95;79.49;95525.56;5033781;28;20185;-75
2021/05/26 03:50:23;;;;;;;4.20;1.43;;;;;;;6.93;79.89;95527.47;5050051;28;20295;-75
2021/05/26 03:52:49;;;;;;;3.23;1.33;;;;;;;6.89;80.22;95527.84;5051452;28;20220;-75
2021/05/26 03:55:17;;;;;;;5.07;1.70;;;;;;;6.82;80.46;95530.13;5051431;28;20311;-73
2021/05/26 03:57:42;;;;;;;3.57;1.50;;;;;;;6.75;80.86;95529.78;5047818;28;20196;-75
2021/05/26 04:00:11;;;;;;;6.10;1.87;;;;;;;6.84;80.75;95543.72;5050356;28;20178;-73
2021/05/26 04:02:36;;;;;;;3.60;1.47;;;;;;;6.75;81.65;95534.13;5049833;28;20210;-73
2021/05/26 04:05:02;;;;;;;5.23;1.60;;;;;;;6.75;81.51;95529.78;5049975;28;20529;-76
2021/05/26 04:07:28;;;;;;;5.13;1.40;;;;;;;6.79;81.84;95527.75;5049437;28;20194;-77
2021/05/26 04:09:53;;;;;;;2.80;1.20;;;;;;;6.80;81.49;95508.75;5050163;28;20575;-75
2021/05/26 04:12:18;;;;;;;3.53;1.50;;;;;;;6.82;81.43;95505.13;5050039;28;20201;-77
2021/05/26 04:14:44;;;;;;;6.93;2.03;;;;;;;6.91;80.76;95508.72;5051227;28;20568;-74
2021/05/26 04:17:09;;;;;;;2.97;1.20;;;;;;;6.86;81.69;95497.13;5048193;28;20665;-74
2021/05/26 04:19:34;;;;;;;6.23;1.70;;;;;;;6.89;81.50;95496.84;5049980;28;20265;-74
2021/05/26 04:21:59;;;;;;;2.03;1.23;;;;;;;6.89;81.76;95494.28;5039787;28;20190;-74
2021/05/26 04:24:25;;;;;;;2.60;1.50;;;;;;;6.93;81.63;95488.75;5049273;28;20255;-74
2021/05/26 04:26:50;;;;;;;6.50;1.27;;;;;;;6.87;81.68;95475.50;5054024;28;20319;-73
2021/05/26 04:29:18;;;;;;;3.53;1.40;;;;;;;6.88;81.37;95472.00;5036226;28;20606;-73
2021/05/26 04:31:43;;;;;;;2.80;1.27;;;;;;;6.89;81.67;95482.22;5055304;28;20205;-74
2021/05/26 04:34:08;;;;;;;5.47;1.50;;;;;;;6.94;81.72;95482.63;5075058;28;20219;-74
2021/05/26 04:36:34;;;;;;;2.47;1.30;;;;;;;6.84;82.21;95483.53;5074883;28;20177;-73
2021/05/26 04:38:59;;;;;;;4.03;1.80;;;;;;;6.84;82.42;95483.53;5046528;28;20215;-73
2021/05/26 04:41:24;;;;;;;2.40;1.57;;;;;;;6.87;82.63;95475.50;5054675;28;20217;-74
2021/05/26 04:43:50;;;;;;;6.27;1.20;;;;;;;6.87;82.14;95471.16;5053587;28;20250;-74
2021/05/26 04:46:15;;;;;;;3.57;1.50;;;;;;;6.85;82.57;95480.00;5055111;28;20181;-73
2021/05/26 04:48:40;;;;;;;2.80;1.50;;;;;;;6.89;82.06;95478.78;5055220;28;20285;-73
2021/05/26 04:51:06;;;;;;;3.30;1.30;;;;;;;6.84;82.29;95480.94;5052258;28;20615;-73
2021/05/26 04:53:31;;;;;;;4.17;1.40;;;;;;;6.87;82.10;95473.75;5053595;28;20603;-74
2021/05/26 04:55:56;;;;;;;3.20;1.63;;;;;;;6.87;82.07;95476.34;5053474;28;20775;-73
2021/05/26 04:58:21;;;;;;;5.50;1.90;;;;;;;6.91;82.02;95472.56;5054650;28;20182;-74
2021/05/26 05:00:47;;;;;;;6.63;2.17;;;;;;;6.93;82.31;95475.84;5050920;28;20224;-74
2021/05/26 05:03:12;;;;;;;3.47;1.60;;;;;;;6.90;82.43;95477.88;5036522;28;20216;-74
2021/05/26 05:05:37;;;;;;;4.33;2.00;;;;;;;6.95;81.90;95480.88;5054302;28;20618;-74
2021/05/26 05:08:04;;;;;;;6.60;2.00;;;;;;;6.89;82.29;95484.78;5053102;28;20555;-73
2021/05/26 05:10:30;;;;;;;3.83;1.70;;;;;;;6.96;82.44;95479.91;5043185;28;20277;-74
2021/05/26 05:12:56;;;;;;;5.17;2.10;;;;;;;6.91;82.31;95490.66;5047097;28;20620;-73
2021/05/26 05:15:21;;;;;;;5.83;2.10;;;;;;;6.94;82.32;95482.63;5032338;28;20191;-73
2021/05/26 05:17:47;;;;;;;3.87;1.40;;;;;;;7.05;82.37;95482.56;5052793;28;20193;-74
2021/05/26 05:20:20;;;;;;;5.53;1.80;;;;;;;7.01;82.76;95475.22;5050514;28;20189;-74
2021/05/26 05:22:49;;;;;;;4.73;1.73;;;;;;;7.01;82.76;95470.84;5049745;28;20247;-74
2021/05/26 05:25:14;;;;;;;2.73;1.20;;;;;;;7.06;82.55;95466.09;5041537;28;20526;-75
2021/05/26 05:27:40;;;;;;;4.80;1.40;;;;;;;7.08;82.59;95456.50;5050773;28;20192;-74
2021/05/26 05:30:06;;;;;;;5.00;1.60;;;;;;;7.17;82.14;95465.25;5070777;28;20665;-73
2021/05/26 05:32:32;;;;;;;1.70;1.10;;;;;;;7.05;82.04;95469.63;5078612;28;20214;-74
2021/05/26 05:34:57;;;;;;;3.03;1.73;;;;;;;7.01;81.37;95457.13;5048411;28;20182;-74
2021/05/26 05:37:23;;;;;;;3.00;1.20;;;;;;;7.05;80.08;95459.31;5044528;28;20178;-74
2021/05/26 05:39:48;;;;;;;3.00;1.00;;;;;;;7.16;79.34;95466.19;5019960;28;20269;-74
2021/05/26 05:42:14;;;;;;;2.13;1.20;;;;;;;7.20;79.67;95467.56;5038393;28;20182;-74
2021/05/26 05:44:39;;;;;;;2.73;1.20;;;;;;;7.14;78.63;95470.63;5048960;28;20562;-74
2021/05/26 05:47:04;;;;;;;6.03;1.30;;;;;;;7.15;78.62;95468.88;5049150;28;20276;-74
2021/05/26 05:49:30;;;;;;;2.37;1.17;;;;;;;7.08;77.52;95461.66;5036182;28;20189;-74
2021/05/26 05:51:55;;;;;;;5.53;1.20;;;;;;;7.13;78.60;95466.44;5047727;28;20186;-74
2021/05/26 05:54:20;;;;;;;3.10;1.00;;;;;;;7.06;78.45;95460.94;5047566;28;20756;-74
2021/05/26 05:56:45;;;;;;;4.07;1.23;;;;;;;7.06;78.82;95466.09;5050003;28;20269;-73
2021/05/26 05:59:11;;;;;;;5.57;2.00;;;;;;;7.03;79.36;95466.38;5046013;28;20202;-73
2021/05/26 06:01:36;;;;;;;3.73;1.30;;;;;;;7.14;78.51;95468.06;5036046;28;20595;-72
2021/05/26 06:04:01;;;;;;;3.23;1.50;;;;;;;7.23;78.27;95458.72;5027797;28;20702;-73
2021/05/26 06:06:27;;;;;;;5.50;2.10;;;;;;;7.26;77.86;95455.91;5048011;28;20186;-74
2021/05/26 06:08:52;;;;;;;3.57;1.60;;;;;;;7.28;77.95;95454.81;5048108;28;20221;-75
2021/05/26 06:11:17;;;;;;;3.80;2.70;;;;;;;7.30;77.96;95465.00;5038301;28;20284;-75
2021/05/26 06:13:46;;;;;;;4.03;2.00;;;;;;;7.32;78.01;95461.34;5035314;28;20686;-75
2021/05/26 06:16:12;;;;;;;2.30;1.20;;;;;;;7.25;79.40;95465.41;5047267;28;20201;-74
2021/05/26 06:18:37;;;;;;;3.27;1.37;;;;;;;7.21;78.00;95465.78;5042394;28;20182;-74
2021/05/26 06:21:03;;;;;;;2.80;1.10;;;;;;;7.11;79.37;95468.31;5032855;28;20178;-73
2021/05/26 06:23:28;;;;;;;3.30;2.60;;;;;;;7.29;79.73;95465.97;5048131;28;20697;-74
2021/05/26 06:25:54;;;;;;;3.17;1.00;;;;;;;7.27;79.40;95473.03;5030522;28;20181;-74
2021/05/26 06:28:19;;;;;;;3.77;1.00;;;;;;;7.25;78.64;95456.84;5051739;28;20252;-74
2021/05/26 06:30:44;;;;;;;3.20;1.10;;;;;;;7.18;79.74;95460.88;5050544;28;20328;-75
2021/05/26 06:33:09;;;;;;;2.97;1.00;;;;;;;7.33;79.78;95455.25;5050895;28;20209;-74
2021/05/26 06:35:35;;;;;;;2.97;1.60;;;;;;;7.45;79.26;95448.22;5050564;28;20190;-74
2021/05/26 06:38:00;;;;;;;2.23;1.00;;;;;;;7.53;79.17;95450.16;5051680;28;20192;-73
2021/05/26 06:40:25;;;;;;;3.33;1.00;;;;;;;7.45;78.65;95450.00;5050919;28;20225;-74
2021/05/26 06:42:51;;;;;;;2.07;1.10;;;;;;;7.57;78.53;95452.31;5041322;28;20218;-74
2021/05/26 06:45:16;;;;;;;2.37;1.13;;;;;;;7.61;79.13;95451.13;5026193;28;20186;-74
2021/05/26 06:47:41;;;;;;;2.23;1.00;;;;;;;7.70;79.00;95444.34;5045511;28;20193;-75
2021/05/26 06:50:07;;;;;;;1.90;1.00;;;;;;;7.67;78.76;95449.75;5034913;28;20213;-74
2021/05/26 06:52:33;;;;;;;2.80;2.37;;;;;;;7.80;78.83;95449.53;5015362;28;20237;-74
2021/05/26 06:54:58;;;;;;;2.63;1.87;;;;;;;7.98;78.52;95442.78;5030646;28;20585;-73
2021/05/26 06:57:23;;;;;;;4.37;1.77;;;;;;;8.09;78.73;95440.06;5044716;28;20188;-73
2021/05/26 06:59:49;;;;;;;3.53;1.40;;;;;;;7.98;78.35;95442.78;5043635;28;20185;-73
2021/05/26 07:02:14;;;;;;;2.00;1.20;;;;;;;8.10;78.21;95439.09;5045072;28;20178;-73
2021/05/26 07:04:39;;;;;;;2.33;1.33;;;;;;;8.15;77.81;95444.69;5045100;28;20884;-74
2021/05/26 07:07:05;;;;;;;3.03;1.10;;;;;;;8.05;77.70;95440.47;5050951;28;20276;-73
2021/05/26 07:09:30;;;;;;;2.73;1.10;;;;;;;8.07;77.62;95441.16;5047505;28;20196;-73
2021/05/26 07:11:55;;;;;;;3.60;1.40;;;;;;;7.98;77.49;95436.78;5039630;28;20297;-73
2021/05/26 07:14:21;;;;;;;1.60;0.97;;;;;;;8.07;78.06;95441.97;5037491;28;20248;-73
2021/05/26 07:16:46;;;;;;;2.43;1.10;;;;;;;8.06;78.03;95436.94;5048270;28;20193;-73
2021/05/26 07:19:12;;;;;;;2.73;1.17;;;;;;;8.16;77.59;95437.75;5027785;28;20182;-73
2021/05/26 07:21:38;;;;;;;3.90;1.10;;;;;;;8.40;77.81;95437.38;5044503;28;20220;-74
2021/05/26 07:24:03;;;;;;;2.10;1.30;;;;;;;8.45;77.11;95437.78;5037869;28;20673;-75
2021/05/26 07:26:29;;;;;;;3.43;1.17;;;;;;;8.60;76.86;95440.78;5032907;28;20186;-73
2021/05/26 07:28:54;;;;;;;2.80;1.27;;;;;;;8.76;76.40;95446.19;5049412;28;20196;-74
2021/05/26 07:31:19;;;;;;;4.17;1.33;;;;;;;8.72;76.88;95444.81;5045164;28;20209;-74
2021/05/26 07:33:45;;;;;;;2.10;1.10;;;;;;;8.78;76.48;95439.91;5033104;28;20218;-73
2021/05/26 07:36:11;;;;;;;2.07;1.00;;;;;;;8.64;76.31;95437.75;5031697;28;20336;-74
2021/05/26 07:38:37;;;;;;;2.60;1.10;;;;;;;8.68;76.26;95435.72;5037451;28;20273;-73
2021/05/26 07:41:04;;;;;;;4.50;1.30;;;;;;;8.64;76.88;95432.56;5040380;28;20196;-75
2021/05/26 07:43:32;;;;;;;3.10;0.87;;;;;;;8.49;76.26;95433.97;5024404;28;20205;-74
2021/05/26 07:45:58;;;;;;;2.70;1.00;;;;;;;8.75;76.74;95440.22;5065815;28;20179;-76
2021/05/26 07:48:23;;;;;;;2.37;1.00;;;;;;;8.57;76.64;95433.25;5026288;28;20196;-76
2021/05/26 07:50:48;;;;;;;1.80;1.20;;;;;;;8.59;75.44;95432.19;5042934;28;20209;-76
2021/05/26 07:53:14;;;;;;;4.07;1.30;;;;;;;8.87;76.08;95434.88;5042559;28;20747;-75
2021/05/26 07:55:39;;;;;;;1.97;0.90;;;;;;;8.73;74.88;95442.09;5016539;28;20201;-75
2021/05/26 07:58:04;;;;;;;3.97;1.30;;;;;;;8.96;75.26;95440.03;5039797;28;20186;-75
2021/05/26 08:00:30;;;;;;;2.67;0.87;;;;;;;9.02;74.33;95430.88;5043343;28;20203;-76
2021/05/26 08:02:55;;;;;;;1.67;1.17;;;;;;;8.79;73.88;95423.44;5031849;28;20636;-75
2021/05/26 08:05:23;;;;;;;2.80;1.03;;;;;;;8.81;73.78;95420.69;5034797;28;20190;-75
2021/05/26 08:07:48;;;;;;;2.13;1.00;;;;;;;9.05;73.47;95426.22;5016892;28;20556;-75
2021/05/26 08:10:15;;;;;;;1.87;0.90;;;;;;;8.69;72.49;95430.41;5043109;28;20210;-75
2021/05/26 08:12:40;;;;;;;1.43;1.00;;;;;;;8.93;73.11;95434.31;5037945;28;20407;-75
2021/05/26 08:15:06;;;;;;;2.20;1.00;;;;;;;8.71;74.18;95420.72;5051450;28;20302;-74
2021/05/26 08:17:32;;;;;;;2.43;0.80;;;;;;;8.38;74.78;95419.38;5054186;28;20536;-75
2021/05/26 08:20:00;;;;;;;2.50;1.20;;;;;;;8.51;74.40;95424.28;5043036;28;20197;-75
2021/05/26 08:22:26;;;;;;;5.20;1.27;;;;;;;8.67;74.48;95421.16;5036266;28;20284;-75
2021/05/26 08:24:51;;;;;;;0.87;0.77;;;;;;;8.71;74.17;95425.88;5029737;28;20312;-76
2021/05/26 08:27:16;;;;;;;1.97;1.10;;;;;;;8.79;73.48;95428.59;5027563;28;20190;-73
2021/05/26 08:29:41;;;;;;;4.53;2.40;;;;;;;9.00;73.52;95414.63;5043130;28;20197;-73
2021/05/26 08:32:07;;;;;;;3.30;0.97;;;;;;;8.96;73.69;95421.06;5036936;28;20218;-73
2021/05/26 08:34:32;;;;;;;0.63;0.50;;;;;;;8.82;74.10;95421.50;5042946;28;20596;-76
2021/05/26 08:36:57;;;;;;;3.90;1.47;;;;;;;8.88;73.27;95424.38;5046585;28;20653;-76
2021/05/26 08:39:23;;;;;;;1.43;0.80;;;;;;;8.95;73.40;95424.63;5039591;28;20182;-76
2021/05/26 08:41:53;;;;;;;2.10;0.90;;;;;;;9.04;73.44;95421.19;5031564;28;20189;-75
2021/05/26 08:44:18;;;;;;;0.80;0.77;;;;;;;9.04;74.13;95423.78;5077222;28;20469;-74
2021/05/26 08:46:44;;;;;;;1.13;0.73;;;;;;;9.38;73.21;95423.25;5069264;28;20738;-76
2021/05/26 08:49:10;;;;;;;2.33;0.90;;;;;;;9.56;73.71;95427.53;5025714;28;20241;-76
2021/05/26 08:51:35;;;;;;;2.20;1.20;;;;;;;9.65;72.73;95425.84;5028686;28;20580;-75
2021/05/26 08:54:01;;;;;;;2.93;0.80;;;;;;;9.24;71.90;95421.94;5043591;28;20202;-75
2021/05/26 08:56:27;;;;;;;2.77;1.20;;;;;;;9.74;72.53;95411.19;5037985;28;20232;-75
2021/05/26 08:58:52;;;;;;;1.30;0.70;;;;;;;9.89;72.28;95418.34;5038450;28;20185;-75
2021/05/26 09:01:20;;;;;;;1.70;0.90;;;;;;;9.82;70.56;95417.28;5041910;28;20883;-76
2021/05/26 09:03:47;;;;;;;2.57;0.97;;;;;;;10.01;71.69;95420.72;5039638;28;20210;-76
2021/05/26 09:06:13;;;;;;;1.60;0.60;;;;;;;9.58;70.15;95423.00;5045465;28;20588;-75
2021/05/26 09:08:52;;;;;;;1.20;0.70;;;;;;;9.61;69.60;95427.06;5025968;28;20190;-75
2021/05/26 09:11:33;;;;;;;2.73;1.30;;;;;;;9.49;69.39;95421.28;5078111;28;20324;-75
2021/05/26 09:14:09;;;;;;;3.13;1.50;;;;;;;9.75;70.38;95416.22;5035086;28;20202;-75
2021/05/26 09:16:35;;;;;;;1.00;0.90;;;;;;;9.98;69.54;95426.19;5048035;28;20177;-76
2021/05/26 09:19:04;;;;;;;2.63;1.13;;;;;;;10.00;70.91;95422.50;5048767;28;20231;-76
2021/05/26 09:21:37;;;;;;;2.60;0.90;;;;;;;9.99;70.85;95422.66;5038251;28;20691;-75
2021/05/26 09:24:22;;;;;;;2.07;0.90;;;;;;;9.45;70.83;95426.88;5039565;28;20229;-76
2021/05/26 09:26:52;;;;;;;2.07;1.03;;;;;;;9.73;71.85;95412.97;5050852;28;20645;-75
2021/05/26 09:29:33;;;;;;;1.80;0.63;;;;;;;9.49;72.05;95415.28;5034086;28;20277;-76
2021/05/26 09:32:20;;;;;;;1.60;0.87;;;;;;;9.55;71.83;95417.31;5034397;28;20567;-74
2021/05/26 09:34:57;;;;;;;1.43;0.50;;;;;;;9.60;72.17;95418.50;5048883;28;20186;-76
2021/05/26 09:37:26;;;;;;;1.87;1.00;;;;;;;9.75;71.45;95418.81;5045733;28;20186;-75
2021/05/26 09:40:07;;;;;;;3.33;0.80;;;;;;;9.87;71.04;95416.84;5062896;28;20178;-76
2021/05/26 09:42:45;;;;;;;1.10;0.70;;;;;;;10.03;69.90;95429.16;5039731;28;20201;-77
2021/05/26 09:45:16;;;;;;;2.30;1.07;;;;;;;10.20;70.71;95430.94;5061007;28;20297;-77
2021/05/26 09:47:44;;;;;;;1.47;0.87;;;;;;;9.62;71.35;95416.56;5044222;28;20193;-76
2021/05/26 09:50:33;;;;;;;1.80;0.70;;;;;;;9.52;72.29;95422.75;5024717;28;20636;-76
2021/05/26 09:52:59;;;;;;;1.63;0.90;;;;;;;9.79;71.53;95414.97;5031052;28;20210;-76
2021/05/26 09:55:46;;;;;;;1.83;0.90;;;;;;;9.79;71.91;95414.97;5033479;28;20248;-77
2021/05/26 09:58:13;;;;;;;0.97;0.70;;;;;;;9.72;71.02;95406.16;5041595;28;20205;-76
2021/05/26 10:00:41;;;;;;;1.30;0.50;;;;;;;9.48;71.63;95418.84;5040303;28;20269;-76
2021/05/26 10:03:07;;;;;;;2.53;0.67;;;;;;;9.72;71.80;95410.50;5072169;28;20616;-75
2021/05/26 10:05:34;;;;;;;1.20;0.70;;;;;;;10.05;71.14;95409.88;5046924;28;20216;-75
2021/05/26 10:08:00;;;;;;;0.63;0.63;;;;;;;9.76;70.08;95412.69;5044286;28;20645;-76
2021/05/26 10:10:28;;;;;;;0.80;0.40;;;;;;;9.82;70.80;95409.50;5050405;28;20823;-76
2021/05/26 10:13:02;;;;;;;1.47;0.40;;;;;;;9.39;72.21;95402.38;5042505;28;20229;-73
2021/05/26 10:15:29;;;;;;;0.67;0.40;;;;;;;9.40;72.28;95418.75;5016480;28;20685;-74
2021/05/26 10:17:55;;;;;;;1.33;0.50;;;;;;;9.61;71.00;95414.13;5074070;28;20220;-76
2021/05/26 10:20:25;;;;;;;3.50;0.60;;;;;;;9.84;72.25;95410.16;5032293;28;20534;-76
2021/05/26 10:22:53;;;;;;;1.70;0.50;;;;;;;9.56;71.68;95411.97;5036173;28;20198;-75
2021/05/26 10:25:20;;;;;;;0.50;0.50;;;;;;;10.00;70.61;95406.13;5034516;28;20268;-75
2021/05/26 10:27:47;;;;;;;0.70;0.37;;;;;;;9.53;71.40;95407.06;5030224;28;20235;-75
2021/05/26 10:30:13;;;;;;;0.50;0.33;;;;;;;9.67;69.50;95403.19;5022165;28;20202;-75
2021/05/26 10:32:51;;;;;;;0.30;0.30;;;;;;;9.75;70.47;95405.03;5045615;28;20281;-74
2021/05/26 10:35:16;;;;;;;0.70;0.30;;;;;;;9.94;70.07;95408.31;5080892;28;20185;-76
2021/05/26 10:37:43;;;;;;;0.97;0.50;;;;;;;9.50;69.98;95396.19;5030615;28;20541;-76
2021/05/26 10:40:29;;;;;;;1.03;0.30;;;;;;;9.48;71.16;95387.72;5044940;28;20179;-76
2021/05/26 10:42:55;;;;;;;0.57;0.40;;;;;;;9.86;71.91;95399.66;5047984;28;20206;-76
2021/05/26 10:45:20;;;;;;;1.10;0.40;;;;;;;9.71;71.90;95394.13;5035187;28;20200;-77
2021/05/26 10:47:47;;;;;;;0.30;0.30;;;;;;;9.55;72.04;95389.59;5047245;28;20182;-76
2021/05/26 10:50:14;;;;;;;0.40;0.37;;;;;;;9.57;71.52;95386.88;5037579;28;20220;-76
2021/05/26 10:52:58;;;;;;;0.30;0.30;;;;;;;9.79;71.17;95385.63;5044086;28;20225;-76
2021/05/26 10:55:43;;;;;;;0.23;0.23;;;;;;;9.75;70.83;95390.31;5047675;28;20186;-74
2021/05/26 10:58:25;;;;;;;0.40;0.40;;;;;;;9.96;71.87;95396.97;5036171;28;20266;-75
2021/05/26 11:00:59;;;;;;;0.37;0.33;;;;;;;9.87;71.73;95394.31;5046192;28;20243;-75
2021/05/26 11:03:24;;;;;;;2.00;0.30;;;;;;;10.23;71.82;95394.34;5046207;28;20263;-73
2021/05/26 11:05:53;;;;;;;0.40;0.40;;;;;;;9.87;71.19;95394.31;5043476;28;20732;-76
2021/05/26 11:08:31;;;;;;;0.30;0.30;;;;;;;9.90;71.02;95396.63;5044007;28;20187;-76
2021/05/26 11:10:57;;;;;;;0.50;0.30;;;;;;;9.81;70.97;95394.91;5036945;28;20205;-76
2021/05/26 11:13:22;;;;;;;0.70;0.40;;;;;;;10.05;71.45;95396.09;5041259;28;20202;-76
2021/05/26 11:15:56;;;;;;;0.93;0.70;;;;;;;10.15;69.59;95402.03;5018634;28;20194;-76
2021/05/26 11:18:29;;;;;;;0.50;0.47;;;;;;;10.24;70.82;95398.56;5075967;28;20181;-75
2021/05/26 11:20:55;;;;;;;3.03;0.53;;;;;;;10.14;69.46;95397.81;5065466;28;20197;-76
2021/05/26 11:23:20;;;;;;;0.30;0.30;;;;;;;10.09;70.66;95400.03;5040722;28;20198;-76
2021/05/26 11:25:49;;;;;;;1.07;0.60;;;;;;;10.48;69.25;95398.78;5042641;28;20186;-75
2021/05/26 11:28:28;;;;;;;0.67;0.40;;;;;;;10.53;70.54;95400.13;5043239;28;20189;-76
2021/05/26 11:30:59;;;;;;;0.63;0.47;;;;;;;9.99;69.93;95400.13;5027665;28;20213;-76
2021/05/26 11:33:24;;;;;;;0.83;0.50;;;;;;;10.44;69.76;95407.84;5041945;28;20683;-75
2021/05/26 11:35:50;;;;;;;0.30;0.30;;;;;;;10.47;69.04;95399.75;5027728;28;20272;-74
2021/05/26 11:38:23;;;;;;;0.83;0.80;;;;;;;10.90;69.51;95400.69;5037684;28;20657;-75
2021/05/26 11:40:48;;;;;;;1.43;0.40;;;;;;;10.73;68.53;95391.16;5035555;28;20233;-74
2021/05/26 11:43:14;;;;;;;0.40;0.30;;;;;;;11.26;67.81;95392.78;5022909;28;20608;-74